createdAt,value
2019-03-16T00:00:55.392Z,10.80
2019-03-16T00:03:24.217Z,10.80
2019-03-16T00:05:53.001Z,10.80
2019-03-16T00:08:22.056Z,10.80
2019-03-16T00:10:51.420Z,10.70
2019-03-16T00:13:20.507Z,10.70
2019-03-16T00:15:49.746Z,10.70
2019-03-16T00:18:18.944Z,10.70
2019-03-16T00:20:47.837Z,10.60
2019-03-16T00:23:16.693Z,10.60
2019-03-16T00:25:45.489Z,10.60
2019-03-16T00:28:14.408Z,10.60
2019-03-16T00:30:43.193Z,10.50
2019-03-16T00:33:12.617Z,10.50
2019-03-16T00:35:41.469Z,10.50
2019-03-16T00:38:10.279Z,10.40
2019-03-16T00:40:39.579Z,10.40
2019-03-16T00:43:08.662Z,10.40
2019-03-16T00:45:37.448Z,10.40
2019-03-16T00:48:06.384Z,10.40
2019-03-16T00:50:35.508Z,10.40
2019-03-16T00:53:04.769Z,10.40
2019-03-16T00:55:34.126Z,10.30
2019-03-16T00:58:06.057Z,10.30
2019-03-16T01:00:34.915Z,10.30
2019-03-16T01:03:05.576Z,10.30
2019-03-16T01:05:34.425Z,10.40
2019-03-16T01:08:03.243Z,10.40
2019-03-16T01:10:32.357Z,10.40
2019-03-16T01:13:01.160Z,10.40
2019-03-16T01:15:29.928Z,10.30
2019-03-16T01:17:58.872Z,10.30
2019-03-16T01:20:28.001Z,10.30
2019-03-16T01:22:56.897Z,10.40
2019-03-16T01:25:25.736Z,10.40
2019-03-16T01:27:54.884Z,10.40
2019-03-16T01:30:23.689Z,10.30
2019-03-16T01:32:52.841Z,10.30
2019-03-16T01:35:21.776Z,10.30
2019-03-16T01:37:50.677Z,10.30
2019-03-16T01:40:19.496Z,10.30
2019-03-16T01:42:48.301Z,10.30
2019-03-16T01:45:17.589Z,10.40
2019-03-16T01:47:46.705Z,10.40
2019-03-16T01:50:15.684Z,10.40
2019-03-16T01:52:44.488Z,10.40
2019-03-16T01:55:13.440Z,10.40
2019-03-16T01:57:42.589Z,10.40
2019-03-16T02:00:11.955Z,10.40
2019-03-16T02:02:53.728Z,10.50
2019-03-16T02:05:11.671Z,10.40
2019-03-16T02:07:40.520Z,10.40
2019-03-16T02:10:09.885Z,10.50
2019-03-16T02:12:39.078Z,10.50
2019-03-16T02:15:08.253Z,10.50
2019-03-16T02:17:37.138Z,10.50
2019-03-16T02:20:06.584Z,10.50
2019-03-16T02:22:35.461Z,10.50
2019-03-16T02:25:04.531Z,10.50
2019-03-16T02:27:33.329Z,10.50
2019-03-16T02:30:02.395Z,10.60
2019-03-16T02:32:31.205Z,10.60
2019-03-16T02:35:00.016Z,10.60
2019-03-16T02:37:28.934Z,10.60
2019-03-16T02:39:57.828Z,10.60
2019-03-16T02:42:26.988Z,10.50
2019-03-16T02:44:55.872Z,10.60
2019-03-16T02:47:24.916Z,10.50
2019-03-16T02:49:53.766Z,10.40
2019-03-16T02:52:22.831Z,10.50
2019-03-16T02:54:51.724Z,10.50
2019-03-16T02:57:20.530Z,10.50
2019-03-16T02:59:49.435Z,10.50
2019-03-16T03:02:18.627Z,10.40
2019-03-16T03:04:47.522Z,10.40
2019-03-16T03:07:16.432Z,10.40
2019-03-16T03:09:45.286Z,10.40
2019-03-16T03:12:14.155Z,10.50
2019-03-16T03:14:43.333Z,10.50
2019-03-16T03:17:12.285Z,10.50
2019-03-16T03:19:41.125Z,10.50
2019-03-16T03:22:09.941Z,10.60
2019-03-16T03:24:38.784Z,10.60
2019-03-16T03:27:09.313Z,10.60
2019-03-16T03:29:38.275Z,10.60
2019-03-16T03:32:07.062Z,10.60
2019-03-16T03:34:36.199Z,10.60
2019-03-16T03:37:05.394Z,10.60
2019-03-16T03:39:34.284Z,10.60
2019-03-16T03:42:04.094Z,10.60
2019-03-16T03:44:32.903Z,10.60
2019-03-16T03:47:02.077Z,10.60
2019-03-16T03:49:30.978Z,10.60
2019-03-16T03:52:00.061Z,10.60
2019-03-16T03:54:29.261Z,10.60
2019-03-16T03:56:58.060Z,10.60
2019-03-16T03:59:26.925Z,10.60
2019-03-16T04:01:55.859Z,10.70
2019-03-16T04:04:25.101Z,10.60
2019-03-16T04:06:54.108Z,10.70
2019-03-16T04:09:23.298Z,10.70
2019-03-16T04:11:52.369Z,10.60
2019-03-16T04:14:21.245Z,10.60
2019-03-16T04:16:50.033Z,10.60
2019-03-16T04:19:18.955Z,10.60
2019-03-16T04:21:47.758Z,10.60
2019-03-16T04:24:16.615Z,10.60
2019-03-16T04:26:45.407Z,10.50
2019-03-16T04:29:14.590Z,10.50
2019-03-16T04:31:43.372Z,10.50
2019-03-16T04:34:12.167Z,10.50
2019-03-16T04:36:41.455Z,10.50
2019-03-16T04:39:10.589Z,10.40
2019-03-16T04:41:39.870Z,10.40
2019-03-16T04:44:08.948Z,10.40
2019-03-16T04:46:37.845Z,10.40
2019-03-16T04:49:06.706Z,10.40
2019-03-16T04:51:35.598Z,10.40
2019-03-16T04:54:04.806Z,10.40
2019-03-16T04:56:33.909Z,10.40
2019-03-16T04:59:02.829Z,10.40
2019-03-16T05:01:31.621Z,10.40
2019-03-16T05:04:00.440Z,10.40
2019-03-16T05:06:29.234Z,10.40
2019-03-16T05:08:58.150Z,10.30
2019-03-16T05:11:27.047Z,10.30
2019-03-16T05:13:55.913Z,10.30
2019-03-16T05:16:25.032Z,10.30
2019-03-16T05:18:54.098Z,10.30
2019-03-16T05:21:22.901Z,10.30
2019-03-16T05:23:51.690Z,10.30
2019-03-16T05:26:20.819Z,10.30
2019-03-16T05:28:49.617Z,10.40
2019-03-16T05:31:18.431Z,10.40
2019-03-16T05:33:47.213Z,10.40
2019-03-16T05:36:16.141Z,10.50
2019-03-16T05:38:44.908Z,10.50
2019-03-16T05:41:13.710Z,10.50
2019-03-16T05:43:42.612Z,10.50
2019-03-16T05:46:11.468Z,10.50
2019-03-16T05:48:40.493Z,10.60
2019-03-16T05:51:09.815Z,10.60
2019-03-16T05:53:38.620Z,10.60
2019-03-16T05:56:07.532Z,10.70
2019-03-16T05:58:36.330Z,10.70
2019-03-16T06:01:05.626Z,10.70
2019-03-16T06:03:34.396Z,10.70
2019-03-16T06:06:03.277Z,10.70
2019-03-16T06:08:32.184Z,10.70
2019-03-16T06:11:01.261Z,10.70
2019-03-16T06:13:30.053Z,10.70
2019-03-16T06:15:58.855Z,10.70
2019-03-16T06:18:27.639Z,10.80
2019-03-16T06:20:56.928Z,10.70
2019-03-16T06:23:25.863Z,10.70
2019-03-16T06:25:54.662Z,10.80
2019-03-16T06:28:23.433Z,10.80
2019-03-16T06:30:52.215Z,10.80
2019-03-16T06:33:21.001Z,10.80
2019-03-16T06:35:49.860Z,10.80
2019-03-16T06:38:18.912Z,10.80
2019-03-16T06:40:47.718Z,10.90
2019-03-16T06:43:16.584Z,10.90
2019-03-16T06:45:46.118Z,10.90
2019-03-16T06:48:15.553Z,10.90
2019-03-16T06:50:44.398Z,11.00
2019-03-16T06:53:13.264Z,11.00
2019-03-16T06:55:42.125Z,10.90
2019-03-16T06:58:11.261Z,11.00
2019-03-16T07:00:40.232Z,11.00
2019-03-16T07:03:09.352Z,11.10
2019-03-16T07:05:39.073Z,11.10
2019-03-16T07:08:08.029Z,11.10
2019-03-16T07:10:36.994Z,11.20
2019-03-16T07:13:05.796Z,11.20
2019-03-16T07:15:34.852Z,11.20
2019-03-16T07:18:03.747Z,11.20
2019-03-16T07:20:35.377Z,11.20
2019-03-16T07:23:04.264Z,11.20
2019-03-16T07:25:33.145Z,11.20
2019-03-16T07:28:01.947Z,11.10
2019-03-16T07:30:30.890Z,11.10
2019-03-16T07:32:59.709Z,11.10
2019-03-16T07:35:29.321Z,11.10
2019-03-16T07:37:58.205Z,11.10
2019-03-16T07:40:27.026Z,11.10
2019-03-16T07:42:55.823Z,11.10
2019-03-16T07:45:24.621Z,11.10
2019-03-16T07:47:53.417Z,11.20
2019-03-16T07:50:22.457Z,11.20
2019-03-16T07:52:51.645Z,11.20
2019-03-16T07:55:20.537Z,11.20
2019-03-16T07:57:49.337Z,11.20
2019-03-16T08:00:18.238Z,11.10
2019-03-16T08:02:47.489Z,11.10
2019-03-16T08:05:19.283Z,11.20
2019-03-16T08:07:47.175Z,11.20
2019-03-16T08:10:16.093Z,11.20
2019-03-16T08:12:44.878Z,11.10
2019-03-16T08:15:13.846Z,11.10
2019-03-16T08:17:42.616Z,11.20
2019-03-16T08:20:12.044Z,11.10
2019-03-16T08:22:40.929Z,11.10
2019-03-16T08:25:09.977Z,11.00
2019-03-16T08:27:38.827Z,11.00
2019-03-16T08:30:08.273Z,11.00
2019-03-16T08:32:37.599Z,11.00
2019-03-16T08:35:06.637Z,11.00
2019-03-16T08:37:35.992Z,11.10
2019-03-16T08:40:05.387Z,11.10
2019-03-16T08:42:34.229Z,11.10
2019-03-16T08:45:03.133Z,11.00
2019-03-16T08:47:32.514Z,11.00
2019-03-16T08:50:01.376Z,10.90
2019-03-16T08:52:30.286Z,10.80
2019-03-16T08:54:59.092Z,10.80
2019-03-16T08:57:27.924Z,10.80
2019-03-16T08:59:57.465Z,10.80
2019-03-16T09:02:26.654Z,10.80
2019-03-16T09:04:55.461Z,10.70
2019-03-16T09:07:25.079Z,10.70
2019-03-16T09:09:54.308Z,10.80
2019-03-16T09:12:23.090Z,10.80
2019-03-16T09:14:52.403Z,10.90
2019-03-16T09:17:21.264Z,11.00
2019-03-16T09:19:50.211Z,11.00
2019-03-16T09:22:19.056Z,11.10
2019-03-16T09:24:48.161Z,11.10
2019-03-16T09:27:16.954Z,11.30
2019-03-16T09:29:46.249Z,11.30
2019-03-16T09:32:15.346Z,11.40
2019-03-16T09:34:44.465Z,11.40
2019-03-16T09:37:13.356Z,11.50
2019-03-16T09:39:42.464Z,11.60
2019-03-16T09:42:11.278Z,11.60
2019-03-16T09:44:40.338Z,11.60
2019-03-16T09:47:09.236Z,11.70
2019-03-16T09:49:38.029Z,11.80
2019-03-16T09:52:07.170Z,11.90
2019-03-16T09:54:36.112Z,11.90
2019-03-16T09:57:05.060Z,12.00
2019-03-16T09:59:33.970Z,12.10
2019-03-16T10:02:02.793Z,12.30
2019-03-16T10:04:31.942Z,12.40
2019-03-16T10:07:00.733Z,12.50
2019-03-16T10:09:29.924Z,12.60
2019-03-16T10:11:59.193Z,12.70
2019-03-16T10:14:28.071Z,12.80
2019-03-16T10:16:57.046Z,12.80
2019-03-16T10:19:26.193Z,12.90
2019-03-16T10:21:55.060Z,12.90
2019-03-16T10:24:23.874Z,13.10
2019-03-16T10:26:53.269Z,13.40
2019-03-16T10:29:22.179Z,13.70
2019-03-16T10:31:51.282Z,14.10
2019-03-16T10:34:20.159Z,14.70
2019-03-16T10:36:48.953Z,15.30
2019-03-16T10:39:17.786Z,15.70
2019-03-16T10:41:47.145Z,16.20
2019-03-16T10:44:16.236Z,16.40
2019-03-16T10:46:45.313Z,16.20
2019-03-16T10:49:14.115Z,15.70
2019-03-16T10:51:43.045Z,15.30
2019-03-16T10:54:11.876Z,15.10
2019-03-16T10:56:40.868Z,14.90
2019-03-16T10:59:09.766Z,14.90
2019-03-16T11:01:38.669Z,15.20
2019-03-16T11:04:07.527Z,15.40
2019-03-16T11:06:36.345Z,15.40
2019-03-16T11:09:07.239Z,15.30
2019-03-16T11:11:36.237Z,15.20
2019-03-16T11:14:05.203Z,15.30
2019-03-16T11:16:35.034Z,15.50
2019-03-16T11:19:03.968Z,15.60
2019-03-16T11:21:32.785Z,15.80
2019-03-16T11:24:01.568Z,15.70
2019-03-16T11:26:30.757Z,15.80
2019-03-16T11:29:08.529Z,16.00
2019-03-16T11:31:30.100Z,16.20
2019-03-16T11:33:58.965Z,16.20
2019-03-16T11:36:27.852Z,16.00
2019-03-16T11:38:56.666Z,15.70
2019-03-16T11:41:25.461Z,15.70
2019-03-16T11:43:54.419Z,15.90
2019-03-16T11:46:23.237Z,16.00
2019-03-16T11:48:52.093Z,16.60
2019-03-16T11:51:40.118Z,17.40
2019-03-16T11:54:08.912Z,17.60
2019-03-16T11:56:39.064Z,17.60
2019-03-16T11:59:16.966Z,17.40
2019-03-16T12:01:38.684Z,17.30
2019-03-16T12:04:08.044Z,17.70
2019-03-16T12:06:37.668Z,17.70
2019-03-16T12:09:07.759Z,18.00
2019-03-16T12:11:36.701Z,18.10
2019-03-16T12:14:05.565Z,18.20
2019-03-16T12:16:34.644Z,18.50
2019-03-16T12:19:03.447Z,18.50
2019-03-16T12:21:32.329Z,18.80
2019-03-16T12:24:01.373Z,18.60
2019-03-16T12:26:30.196Z,18.00
2019-03-16T12:28:58.971Z,17.30
2019-03-16T12:31:27.945Z,16.60
2019-03-16T12:33:57.202Z,16.30
2019-03-16T12:36:26.064Z,16.60
2019-03-16T12:38:54.848Z,16.80
2019-03-16T12:41:23.736Z,16.70
2019-03-16T12:43:52.660Z,16.90
2019-03-16T12:46:21.953Z,17.20
2019-03-16T12:48:50.851Z,17.40
2019-03-16T12:51:19.926Z,17.50
2019-03-16T12:53:49.281Z,17.30
2019-03-16T12:56:18.115Z,17.20
2019-03-16T12:58:46.961Z,17.10
2019-03-16T13:01:15.781Z,17.00
2019-03-16T13:03:49.242Z,17.10
2019-03-16T13:06:19.149Z,17.00
2019-03-16T13:08:48.697Z,17.00
2019-03-16T13:11:17.885Z,16.80
2019-03-16T13:13:47.329Z,16.70
2019-03-16T13:16:16.278Z,16.80
2019-03-16T13:18:45.356Z,16.70
2019-03-16T13:21:14.120Z,16.80
2019-03-16T13:23:43.043Z,17.10
2019-03-16T13:26:11.839Z,17.40
2019-03-16T13:28:40.929Z,17.30
2019-03-16T13:31:10.177Z,17.40
2019-03-16T13:33:39.483Z,17.10
2019-03-16T13:36:08.451Z,16.90
2019-03-16T13:38:37.309Z,16.90
2019-03-16T13:41:06.208Z,17.10
2019-03-16T13:43:35.530Z,17.30
2019-03-16T13:46:04.422Z,17.40
2019-03-16T13:48:33.401Z,17.60
2019-03-16T13:51:02.180Z,17.70
2019-03-16T13:53:32.683Z,17.90
2019-03-16T13:56:01.492Z,18.00
2019-03-16T13:58:30.384Z,18.00
2019-03-16T14:00:59.174Z,18.20
2019-03-16T14:03:28.130Z,18.30
2019-03-16T14:05:57.546Z,18.30
2019-03-16T14:08:26.704Z,18.10
2019-03-16T14:10:55.475Z,17.90
2019-03-16T14:13:24.933Z,17.80
2019-03-16T14:15:53.774Z,17.50
2019-03-16T14:18:22.574Z,17.40
2019-03-16T14:20:51.668Z,17.20
2019-03-16T14:23:20.462Z,16.90
2019-03-16T14:25:50.132Z,16.70
2019-03-16T14:28:19.390Z,16.70
2019-03-16T14:30:49.144Z,16.80
2019-03-16T14:33:18.966Z,16.90
2019-03-16T14:35:47.760Z,17.00
2019-03-16T14:38:17.054Z,17.00
2019-03-16T14:40:45.948Z,17.00
2019-03-16T14:43:14.765Z,17.00
2019-03-16T14:45:44.354Z,17.10
2019-03-16T14:48:13.148Z,17.10
2019-03-16T14:50:41.935Z,17.10
2019-03-16T14:53:10.810Z,16.90
2019-03-16T14:55:39.937Z,16.60
2019-03-16T14:58:08.709Z,16.30
2019-03-16T15:00:38.989Z,16.00
2019-03-16T15:03:07.923Z,15.90
2019-03-16T15:05:37.209Z,15.70
2019-03-16T15:08:06.153Z,15.50
2019-03-16T15:10:35.094Z,15.40
2019-03-16T15:13:04.022Z,15.20
2019-03-16T15:15:32.815Z,15.00
2019-03-16T15:18:01.713Z,15.00
2019-03-16T15:20:30.696Z,14.90
2019-03-16T15:22:59.591Z,14.90
2019-03-16T15:25:28.397Z,14.80
2019-03-16T15:27:57.194Z,14.80
2019-03-16T15:30:26.094Z,14.90
2019-03-16T15:32:55.316Z,14.90
2019-03-16T15:35:24.232Z,15.00
2019-03-16T15:37:53.451Z,15.00
2019-03-16T15:40:22.410Z,15.20
2019-03-16T15:42:51.338Z,15.20
2019-03-16T15:45:20.369Z,15.30
2019-03-16T15:47:49.749Z,15.40
2019-03-16T15:50:18.915Z,15.30
2019-03-16T15:52:47.851Z,15.20
2019-03-16T15:55:16.721Z,15.10
2019-03-16T15:57:45.635Z,14.90
2019-03-16T16:00:15.012Z,14.60
2019-03-16T16:02:44.029Z,14.40
2019-03-16T16:05:14.468Z,14.20
2019-03-16T16:07:43.415Z,13.90
2019-03-16T16:10:12.999Z,13.80
2019-03-16T16:12:42.304Z,13.60
2019-03-16T16:15:11.629Z,13.50
2019-03-16T16:17:40.591Z,13.40
2019-03-16T16:20:10.145Z,13.20
2019-03-16T16:22:39.387Z,13.20
2019-03-16T16:25:09.031Z,13.10
2019-03-16T16:27:37.928Z,13.00
2019-03-16T16:30:08.032Z,12.90
2019-03-16T16:32:39.947Z,12.80
2019-03-16T16:35:09.772Z,12.80
2019-03-16T16:37:38.626Z,12.70
2019-03-16T16:40:09.112Z,12.60
2019-03-16T16:42:38.178Z,12.50
2019-03-16T16:45:08.103Z,12.30
2019-03-16T16:47:37.073Z,12.20
2019-03-16T16:50:08.124Z,12.10
2019-03-16T16:52:37.239Z,12.00
2019-03-16T16:55:06.233Z,11.80
2019-03-16T16:57:35.194Z,11.70
2019-03-16T17:00:09.217Z,11.50
2019-03-16T17:02:41.485Z,11.40
2019-03-16T17:05:10.466Z,11.30
2019-03-16T17:07:39.443Z,11.10
2019-03-16T17:10:10.204Z,11.10
2019-03-16T17:12:39.067Z,10.90
2019-03-16T17:15:09.014Z,10.80
2019-03-16T17:17:38.077Z,10.70
2019-03-16T17:20:08.028Z,10.60
2019-03-16T17:22:37.547Z,10.50
2019-03-16T17:25:06.866Z,10.40
2019-03-16T17:27:36.176Z,10.20
2019-03-16T17:30:07.189Z,10.10
2019-03-16T17:32:37.041Z,10.10
2019-03-16T17:35:05.953Z,9.90
2019-03-16T17:37:34.821Z,9.90
2019-03-16T17:40:03.898Z,9.70
2019-03-16T17:42:33.032Z,9.60
2019-03-16T17:45:02.049Z,9.50
2019-03-16T17:47:30.841Z,9.50
2019-03-16T17:49:59.612Z,9.40
2019-03-16T17:52:28.543Z,9.40
2019-03-16T17:54:57.497Z,9.30
2019-03-16T17:57:26.317Z,9.20
2019-03-16T17:59:56.967Z,9.20
2019-03-16T18:02:25.952Z,9.10
2019-03-16T18:04:54.930Z,9.10
2019-03-16T18:07:24.130Z,9.00
2019-03-16T18:09:53.081Z,8.90
2019-03-16T18:12:22.053Z,8.90
2019-03-16T18:14:51.396Z,8.80
2019-03-16T18:17:20.208Z,8.80
2019-03-16T18:19:49.156Z,8.90
2019-03-16T18:22:18.138Z,8.90
2019-03-16T18:24:46.981Z,9.00
2019-03-16T18:27:15.848Z,9.00
2019-03-16T18:29:44.656Z,9.00
2019-03-16T18:32:13.653Z,8.80
2019-03-16T18:34:42.450Z,8.70
2019-03-16T18:37:11.600Z,8.50
2019-03-16T18:39:40.392Z,8.40
2019-03-16T18:42:09.609Z,8.30
2019-03-16T18:44:38.476Z,8.20
2019-03-16T18:47:07.411Z,8.10
2019-03-16T18:49:36.262Z,8.10
2019-03-16T18:52:05.271Z,8.00
2019-03-16T18:54:34.323Z,8.00
2019-03-16T18:57:03.289Z,7.90
2019-03-16T18:59:32.176Z,7.90
2019-03-16T19:02:01.016Z,7.90
2019-03-16T19:04:29.817Z,7.90
2019-03-16T19:06:58.621Z,7.90
2019-03-16T19:09:27.593Z,7.80
2019-03-16T19:11:56.464Z,7.70
2019-03-16T19:14:25.527Z,7.70
2019-03-16T19:16:54.746Z,7.50
2019-03-16T19:19:23.861Z,7.50
2019-03-16T19:21:52.790Z,7.50
2019-03-16T19:24:22.013Z,7.40
2019-03-16T19:26:50.942Z,7.30
2019-03-16T19:29:20.157Z,7.30
2019-03-16T19:31:49.103Z,7.30
2019-03-16T19:34:18.099Z,7.20
2019-03-16T19:36:47.107Z,7.00
2019-03-16T19:39:16.001Z,6.90
2019-03-16T19:41:45.447Z,6.70
2019-03-16T19:44:14.444Z,6.50
2019-03-16T19:46:44.456Z,6.40
2019-03-16T19:49:13.582Z,6.20
2019-03-16T19:51:42.871Z,6.20
2019-03-16T19:54:12.468Z,6.10
2019-03-16T19:56:41.981Z,6.00
2019-03-16T19:59:11.085Z,5.90
2019-03-16T20:01:40.348Z,5.70
2019-03-16T20:04:09.227Z,5.60
2019-03-16T20:06:39.642Z,5.60
2019-03-16T20:09:09.360Z,5.50
2019-03-16T20:11:38.450Z,5.40
2019-03-16T20:14:07.383Z,5.30
2019-03-16T20:16:36.410Z,5.20
2019-03-16T20:19:05.515Z,5.10
2019-03-16T20:21:34.725Z,5.10
2019-03-16T20:24:03.887Z,4.90
2019-03-16T20:26:32.886Z,4.90
2019-03-16T20:29:02.480Z,4.80
2019-03-16T20:31:31.840Z,4.80
2019-03-16T20:34:01.423Z,4.70
2019-03-16T20:36:30.429Z,4.70
2019-03-16T20:38:59.877Z,4.60
2019-03-16T20:41:36.109Z,4.50
2019-03-16T20:43:59.845Z,4.40
2019-03-16T20:46:28.964Z,4.40
2019-03-16T20:48:58.478Z,4.40
2019-03-16T20:51:28.031Z,4.30
2019-03-16T20:53:57.106Z,4.30
2019-03-16T20:56:26.609Z,4.20
2019-03-16T20:58:55.949Z,4.20
2019-03-16T21:01:25.209Z,4.10
2019-03-16T21:03:54.667Z,4.10
2019-03-16T21:06:23.794Z,4.10
2019-03-16T21:09:02.547Z,4.10
2019-03-16T21:11:23.933Z,4.10
2019-03-16T21:13:53.297Z,4.00
2019-03-16T21:16:22.789Z,4.00
2019-03-16T21:18:52.037Z,4.00
2019-03-16T21:21:21.457Z,4.10
2019-03-16T21:23:50.354Z,4.20
2019-03-16T21:26:19.408Z,4.10
2019-03-16T21:28:48.308Z,4.20
2019-03-16T21:31:17.724Z,4.20
2019-03-16T21:33:46.751Z,4.20
2019-03-16T21:36:15.539Z,4.30
2019-03-16T21:38:44.382Z,4.30
2019-03-16T21:41:13.261Z,4.30
2019-03-16T21:43:42.105Z,4.30
2019-03-16T21:46:19.588Z,4.30
2019-03-16T21:48:48.488Z,4.20
2019-03-16T21:51:17.658Z,4.10
2019-03-16T21:53:46.977Z,4.10
2019-03-16T21:56:16.293Z,4.00
2019-03-16T21:58:45.198Z,4.00
2019-03-16T22:01:14.021Z,3.90
2019-03-16T22:03:42.906Z,3.90
2019-03-16T22:06:11.781Z,3.90
2019-03-16T22:08:40.879Z,3.80
2019-03-16T22:11:11.471Z,3.80
2019-03-16T22:13:40.735Z,3.80
2019-03-16T22:16:11.780Z,3.80
2019-03-16T22:18:40.367Z,3.70
2019-03-16T22:21:09.488Z,3.70
2019-03-16T22:23:38.373Z,3.70
2019-03-16T22:26:07.537Z,3.70
2019-03-16T22:28:36.445Z,3.60
2019-03-16T22:31:05.307Z,3.60
2019-03-16T22:33:34.200Z,3.70
2019-03-16T22:36:02.989Z,3.70
2019-03-16T22:38:31.966Z,3.70
2019-03-16T22:41:00.784Z,3.80
2019-03-16T22:43:29.894Z,3.80
2019-03-16T22:45:59.047Z,3.80
2019-03-16T22:48:27.973Z,3.70
2019-03-16T22:50:56.885Z,3.70
2019-03-16T22:53:26.097Z,3.60
2019-03-16T22:55:54.880Z,3.60
2019-03-16T22:58:23.683Z,3.70
2019-03-16T23:00:53.392Z,3.80
2019-03-16T23:03:22.743Z,3.80
2019-03-16T23:05:52.155Z,3.80
2019-03-16T23:08:21.280Z,3.70
2019-03-16T23:10:50.787Z,3.60
2019-03-16T23:13:19.951Z,3.60
2019-03-16T23:15:49.018Z,3.60
2019-03-16T23:18:18.685Z,3.60
2019-03-16T23:20:47.547Z,3.50
2019-03-16T23:23:16.672Z,3.50
2019-03-16T23:25:45.872Z,3.50
2019-03-16T23:28:15.635Z,3.50
2019-03-16T23:30:44.970Z,3.40
2019-03-16T23:33:14.142Z,3.30
2019-03-16T23:35:43.310Z,3.30
2019-03-16T23:38:12.773Z,3.40
2019-03-16T23:40:42.658Z,3.30
2019-03-16T23:43:11.632Z,3.30
2019-03-16T23:45:40.687Z,3.20
2019-03-16T23:48:09.839Z,3.20
2019-03-16T23:50:39.574Z,3.20
2019-03-16T23:53:08.642Z,3.20
2019-03-16T23:55:37.622Z,3.10
2019-03-16T23:58:06.610Z,3.10
